Flight Track Log - Related Links

Times and Time Zones

All times are in EST time to prevent confusion due to time zone crossing. See the EJA922 flight status page for this flight to view local times or setup timezone preferences in your user account.

Time Position Orientation Groundspeed Altitude Reporting Facility
EST Latitude Longitude Course Direction KTS MPH feet Rate Location/Type
Tue 02:20:43 PM 42.2231 -83.5500 76° East 185 213 1,600  Level Cleveland Center
Tue 02:21:07 PM 42.2111 -83.5681 228° Southwest 187 215 2,300 2,023 Climbing Cleveland Center
Tue 02:22:09 PM 42.2097 -83.6383 268° West 207 238 4,500 1,970 Climbing Cleveland Center
Tue 02:22:14 PM 42.2100 -83.6356 82° East 202 232 4,500 2,687 Level Cleveland Center
Tue 02:23:16 PM 42.2547 -83.6983 314° West 251 289 7,500 2,516 Climbing Cleveland Center
Tue 02:24:18 PM 42.3261 -83.6408 31° Northeast 301 346 9,700 2,274 Climbing Cleveland Center
Tue 02:25:20 PM 42.3972 -83.5250 50° Northeast 382 440 12,200 1,597 Climbing Cleveland Center
Tue 02:26:00 PM 42.3435 -82.5776 76° East  Level FlightAware Approximate
Tue 02:26:22 PM 42.3975 -83.3636 90° East 430 495 13,000  Level Cleveland Center
Tue 02:27:24 PM 42.3933 -83.2117 92° East 443 510 13,000 726 Level Cleveland Center
Tue 02:28:26 PM 42.3872 -83.0144 92° East 438 504 14,500 2,081 Climbing Cleveland Center
Tue 02:29:28 PM 42.3814 -82.8467 93° East 443 510 17,300 2,758 Climbing Cleveland Center
Tue 02:30:30 PM 42.3756 -82.6789 93° East 446 513 20,200 2,468 Climbing Cleveland Center
Tue 02:31:32 PM 42.3692 -82.5078 93° East 452 520 22,400 2,032 Climbing Cleveland Center
Tue 02:32:34 PM 42.3622 -82.3278 93° East 476 548 24,400 2,081 Climbing Cleveland Center
Tue 02:33:36 PM 42.3533 -82.1111 93° East 506 582 26,700 2,081 Climbing Cleveland Center
Tue 02:34:38 PM 42.3439 -81.9125 94° East 520 598 28,700 1,968 Climbing Cleveland Center
Tue 02:35:41 PM 42.3356 -81.7081 93° East 534 615 30,800 1,728 Climbing Cleveland Center
Tue 02:36:43 PM 42.3258 -81.5006 94° East 543 625 32,300 1,645 Climbing Cleveland Center
Tue 02:37:45 PM 42.3153 -81.2856 94° East 560 644 34,200 1,306 Climbing Cleveland Center
Tue 02:38:47 PM 42.3044 -81.0681 94° East 570 656 35,000 1,161 Climbing Cleveland Center
Tue 02:39:49 PM 42.2903 -80.8039 94° East 593 682 36,600 968 Climbing Cleveland Center
Tue 02:40:51 PM 42.2778 -80.5789 94° East 594 684 37,000 194 Climbing Cleveland Center
Tue 02:41:53 PM 42.2658 -80.3539 94° East 595 685 37,000  Level Cleveland Center
Tue 02:42:55 PM 42.2572 -80.1231 93° East 608 700 37,000  Level Cleveland Center
Tue 02:43:57 PM 42.2744 -79.8836 84° East 627 722 37,000  Level Cleveland Center
Tue 02:44:59 PM 42.2942 -79.6506 83° East 627 722 37,000  Level Cleveland Center
Tue 02:46:01 PM 42.3136 -79.4161 84° East 630 725 37,000  Level Cleveland Center
Tue 02:47:03 PM 42.3369 -79.1358 83° East 629 724 37,000  Level Cleveland Center
Tue 02:48:05 PM 42.3567 -78.8994 83° East 631 726 37,000  Level Cleveland Center
Tue 02:49:07 PM 42.3758 -78.6500 84° East 631 726 37,000  Level Cleveland Center
Tue 02:50:09 PM 42.3944 -78.4125 84° East 636 732 37,000 -145 Level Cleveland Center
Tue 02:51:11 PM 42.4131 -78.1722 84° East 645 742 36,700 -1,065 Descending Cleveland Center
Tue 02:52:13 PM 42.4294 -77.9383 84° East 636 732 34,800 -1,597 Descending Cleveland Center
Tue 02:53:15 PM 42.4469 -77.6897 84° East 636 732 33,400 -871 Descending Cleveland Center
Tue 02:54:17 PM 42.4661 -77.4292 84° East 633 728 33,000 -194 Descending Cleveland Center
Tue 02:55:19 PM 42.4800 -77.1936 85° East 636 732 33,000  Level Cleveland Center
Tue 02:56:21 PM 42.4958 -76.9569 85° East 635 731 33,000  Level Cleveland Center
Tue 02:57:23 PM 42.5094 -76.7194 85° East 637 733 33,000  Level Cleveland Center
Tue 02:58:25 PM 42.5247 -76.4797 85° East 641 738 33,000 -864 Level Cleveland Center
Tue 02:59:28 PM 42.5014 -76.2228 97° East 621 715 31,200 -1,824 Descending Cleveland Center
Tue 03:00:30 PM 42.4489 -76.0164 109° East 590 679 29,200 -2,129 Descending Cleveland Center
Tue 03:01:32 PM 42.3878 -75.7750 109° East 572 658 26,800 -2,032 Descending Cleveland Center
Tue 03:02:34 PM 42.3383 -75.5778 109° East 562 647 25,000 -2,323 Descending Cleveland Center
Tue 03:03:36 PM 42.2919 -75.3961 109° East 521 600 22,000 -2,806 Descending Cleveland Center
Tue 03:04:38 PM 42.2469 -75.2236 109° East 494 568 19,200 -1,935 Descending Cleveland Center
Tue 03:05:40 PM 42.2047 -75.0597 109° East 471 542 18,000 -518 Descending Cleveland Center
Tue 03:06:57 PM 42.1294 -74.8439 115° Southeast 461 531 18,000 -348 Level Boston Center
Tue 03:07:58 PM 42.0664 -74.6956 120° Southeast 460 529 17,200 -1,140 Descending Boston Center
Tue 03:08:58 PM 42.0008 -74.5342 119° Southeast 467 537 15,700 -1,887 Descending Boston Center
Tue 03:10:02 PM 41.9428 -74.4014 120° Southeast 413 475 13,300 -2,208 Descending Boston Center
Tue 03:11:03 PM 41.8883 -74.2783 121° Southeast 389 448 11,100 -1,525 Descending Boston Center
Tue 03:12:04 PM 41.8117 -74.2089 146° Southeast 309 356 10,200 -1,131 Descending Boston Center
Tue 03:13:05 PM 41.7411 -74.1653 155° Southeast 283 326 8,800 -1,289 Descending Boston Center
Tue 03:14:05 PM 41.6744 -74.1222 154° Southeast 268 308 7,600 -871 Descending Boston Center
Tue 03:15:09 PM 41.6044 -74.0783 155° Southeast 259 298 7,000 -466 Descending Boston Center
Tue 03:16:01 PM 41.5500 -74.0333 148° Southeast 259 298 6,700 -482 Descending New York TRACON
Tue 03:17:01 PM 41.4833 -74.0000 159° South 250 288 6,100 -300 Descending New York TRACON
Tue 03:18:01 PM 41.4167 -73.9667 159° South 238 274 6,100 -200 Level New York TRACON
Tue 03:19:01 PM 41.3667 -73.9333 153° Southeast 180 207 5,700 -650 Descending New York TRACON
Tue 03:20:01 PM 41.3333 -73.9000 143° Southeast 167 192 4,800 -800 Descending New York TRACON
Tue 03:21:01 PM 41.2833 -73.8833 166° South 166 191 4,100 -333 Descending New York TRACON
Tue 03:22:07 PM 41.2500 -73.8500 143° Southeast 150 173 4,100 -190 Level New York TRACON
Tue 03:23:07 PM 41.2167 -73.8167 143° Southeast 142 163 3,700 -600 Descending New York TRACON
Tue 03:24:07 PM 41.1833 -73.8000 159° South 155 178 2,900 -800 Descending New York TRACON
Tue 03:25:07 PM 41.1333 -73.7667 153° Southeast 150 173 2,100 -762 Descending New York TRACON
Tue 03:26:13 PM 41.1000 -73.7333 143° Southeast 132 152 1,300 -727 Descending New York TRACON
Tue 03:28:00 PM 41.0667 -73.7000 246° West  Level FlightAware Approximate
Tue 03:35:00 PM 41.0669 -73.7076 246° West  Level Estimated

Login

Don't have an account? Register now (free) for customized features, flight alerts, and more!